createdAt,value
2019-02-10T00:00:12.840Z,4.70
2019-02-10T00:02:57.954Z,5.73
2019-02-10T00:05:43.358Z,5.10
2019-02-10T00:08:28.525Z,5.57
2019-02-10T00:11:33.536Z,5.00
2019-02-10T00:14:18.559Z,4.70
2019-02-10T00:17:03.688Z,5.37
2019-02-10T00:19:55.321Z,4.97
2019-02-10T00:22:40.618Z,5.43
2019-02-10T00:25:25.910Z,5.43
2019-02-10T00:28:11.103Z,4.90
2019-02-10T00:30:56.380Z,5.47
2019-02-10T00:33:41.865Z,5.30
2019-02-10T00:36:32.897Z,5.33
2019-02-10T00:39:14.108Z,4.60
2019-02-10T00:41:59.446Z,4.83
2019-02-10T00:44:44.747Z,5.57
2019-02-10T00:47:29.678Z,5.30
2019-02-10T00:50:14.927Z,5.50
2019-02-10T00:53:00.120Z,5.17
2019-02-10T00:55:45.468Z,5.57
2019-02-10T00:58:30.716Z,5.13
2019-02-10T01:01:16.458Z,4.87
2019-02-10T01:04:01.396Z,5.43
2019-02-10T01:06:46.421Z,5.73
2019-02-10T01:09:31.335Z,5.17
2019-02-10T01:12:16.583Z,6.23
2019-02-10T01:15:02.038Z,6.00
2019-02-10T01:17:47.242Z,5.30
2019-02-10T01:20:33.101Z,5.27
2019-02-10T01:23:18.946Z,5.73
2019-02-10T01:26:04.351Z,5.60
2019-02-10T01:28:49.519Z,5.60
2019-02-10T01:31:34.779Z,6.00
2019-02-10T01:34:19.919Z,5.80
2019-02-10T01:37:05.347Z,6.47
2019-02-10T01:39:50.503Z,5.77
2019-02-10T01:42:35.889Z,6.23
2019-02-10T01:45:20.992Z,6.27
2019-02-10T01:48:06.240Z,5.70
2019-02-10T01:50:51.562Z,5.77
2019-02-10T01:53:36.738Z,5.60
2019-02-10T01:56:22.064Z,6.07
2019-02-10T01:59:07.488Z,5.13
2019-02-10T02:01:52.690Z,5.50
2019-02-10T02:04:37.926Z,6.30
2019-02-10T02:07:23.447Z,5.83
2019-02-10T02:10:11.998Z,5.27
2019-02-10T02:12:57.023Z,5.20
2019-02-10T02:15:42.222Z,6.37
2019-02-10T02:18:27.404Z,5.27
2019-02-10T02:21:12.357Z,5.40
2019-02-10T02:23:57.305Z,5.53
2019-02-10T02:26:42.493Z,5.00
2019-02-10T02:29:27.771Z,5.50
2019-02-10T02:32:13.071Z,5.60
2019-02-10T02:34:58.543Z,5.57
2019-02-10T02:37:43.889Z,5.63
2019-02-10T02:40:28.994Z,5.00
2019-02-10T02:43:14.360Z,5.03
2019-02-10T02:45:59.620Z,5.00
2019-02-10T02:48:44.722Z,4.90
2019-02-10T02:51:30.289Z,4.97
2019-02-10T02:54:15.510Z,4.50
2019-02-10T02:57:00.898Z,4.80
2019-02-10T02:59:46.050Z,6.27
2019-02-10T03:02:31.048Z,4.80
2019-02-10T03:05:16.484Z,5.23
2019-02-10T03:08:01.626Z,5.90
2019-02-10T03:10:47.133Z,5.73
2019-02-10T03:13:32.517Z,5.23
2019-02-10T03:16:17.729Z,4.80
2019-02-10T03:19:03.666Z,5.00
2019-02-10T03:21:48.690Z,4.67
2019-02-10T03:24:34.196Z,5.43
2019-02-10T03:27:19.439Z,5.00
2019-02-10T03:30:10.374Z,5.13
2019-02-10T03:32:55.775Z,4.83
2019-02-10T03:35:40.697Z,4.30
2019-02-10T03:38:25.779Z,4.80
2019-02-10T03:41:10.922Z,4.83
2019-02-10T03:43:55.820Z,5.33
2019-02-10T03:46:40.820Z,4.90
2019-02-10T03:49:26.575Z,4.93
2019-02-10T03:52:11.992Z,4.80
2019-02-10T03:54:57.482Z,5.07
2019-02-10T03:57:42.578Z,4.60
2019-02-10T04:00:27.865Z,4.50
2019-02-10T04:03:12.996Z,4.93
2019-02-10T04:05:59.068Z,4.80
2019-02-10T04:08:44.134Z,5.17
2019-02-10T04:11:29.555Z,4.83
2019-02-10T04:14:14.757Z,4.80
2019-02-10T04:17:00.070Z,5.10
2019-02-10T04:19:45.222Z,5.30
2019-02-10T04:22:50.255Z,4.90
2019-02-10T04:25:35.243Z,5.03
2019-02-10T04:28:20.536Z,5.60
2019-02-10T04:31:05.598Z,5.50
2019-02-10T04:33:50.931Z,5.00
2019-02-10T04:36:36.267Z,5.83
2019-02-10T04:39:21.592Z,5.37
2019-02-10T04:42:06.601Z,5.63
2019-02-10T04:44:51.405Z,5.73
2019-02-10T04:47:36.362Z,5.83
2019-02-10T04:50:21.543Z,5.80
2019-02-10T04:53:06.706Z,6.17
2019-02-10T04:56:12.416Z,5.53
2019-02-10T04:58:57.628Z,5.60
2019-02-10T05:01:42.964Z,5.90
2019-02-10T05:04:28.025Z,5.67
2019-02-10T05:07:13.355Z,5.47
2019-02-10T05:09:58.913Z,6.23
2019-02-10T05:12:43.714Z,5.77
2019-02-10T05:15:38.510Z,5.37
2019-02-10T05:18:24.014Z,5.90
2019-02-10T05:21:09.666Z,5.07
2019-02-10T05:24:03.181Z,5.97
2019-02-10T05:26:41.741Z,6.07
2019-02-10T05:29:26.939Z,5.40
2019-02-10T05:32:12.428Z,5.67
2019-02-10T05:34:57.629Z,5.27
2019-02-10T05:37:42.842Z,5.47
2019-02-10T05:40:27.963Z,6.13
2019-02-10T05:43:13.699Z,5.77
2019-02-10T05:45:59.045Z,5.47
2019-02-10T05:48:44.237Z,5.53
2019-02-10T05:51:29.420Z,5.53
2019-02-10T05:54:14.526Z,5.50
2019-02-10T05:56:59.686Z,5.47
2019-02-10T05:59:44.939Z,5.20
2019-02-10T06:02:30.814Z,6.30
2019-02-10T06:05:19.489Z,5.70
2019-02-10T06:08:12.718Z,6.30
2019-02-10T06:10:51.503Z,5.80
2019-02-10T06:13:36.613Z,5.70
2019-02-10T06:16:21.900Z,6.30
2019-02-10T06:19:07.160Z,6.63
2019-02-10T06:21:52.178Z,5.40
2019-02-10T06:24:38.148Z,6.23
2019-02-10T06:27:23.422Z,6.40
2019-02-10T06:30:09.809Z,5.87
2019-02-10T06:32:54.835Z,5.90
2019-02-10T06:35:40.130Z,5.47
2019-02-10T06:38:24.903Z,6.83
2019-02-10T06:41:09.933Z,5.43
2019-02-10T06:43:55.099Z,5.33
2019-02-10T06:46:40.455Z,5.27
2019-02-10T06:49:25.482Z,5.40
2019-02-10T06:52:10.653Z,5.20
2019-02-10T06:54:55.815Z,5.53
2019-02-10T06:57:41.050Z,5.63
2019-02-10T07:00:28.027Z,6.30
2019-02-10T07:03:32.926Z,5.90
2019-02-10T07:06:18.022Z,5.67
2019-02-10T07:09:05.046Z,5.43
2019-02-10T07:11:50.012Z,5.70
2019-02-10T07:14:35.204Z,5.57
2019-02-10T07:17:24.252Z,6.20
2019-02-10T07:20:33.126Z,5.97
2019-02-10T07:23:38.633Z,5.70
2019-02-10T07:26:27.445Z,6.20
2019-02-10T07:29:19.535Z,5.73
2019-02-10T07:32:06.583Z,5.50
2019-02-10T07:35:18.162Z,6.00
2019-02-10T07:38:06.852Z,5.77
2019-02-10T07:40:58.861Z,6.07
2019-02-10T07:44:13.577Z,5.70
2019-02-10T07:47:05.001Z,4.97
2019-02-10T07:50:02.827Z,5.53
2019-02-10T07:52:54.760Z,6.03
2019-02-10T07:56:02.138Z,5.27
2019-02-10T07:58:51.516Z,5.87
2019-02-10T08:01:46.111Z,5.30
2019-02-10T08:04:41.109Z,5.40
2019-02-10T08:07:47.622Z,5.30
2019-02-10T08:10:58.032Z,5.37
2019-02-10T08:13:52.432Z,5.83
2019-02-10T08:16:50.544Z,5.97
2019-02-10T08:19:39.294Z,6.03
2019-02-10T08:22:40.198Z,5.57
2019-02-10T08:25:48.766Z,6.33
2019-02-10T08:28:50.300Z,5.53
2019-02-10T08:31:48.540Z,5.90
2019-02-10T08:34:40.615Z,5.47
2019-02-10T08:37:41.243Z,5.30
2019-02-10T08:40:51.063Z,5.50
2019-02-10T08:43:48.939Z,5.60
2019-02-10T08:47:01.048Z,5.70
2019-02-10T08:50:09.854Z,6.30
2019-02-10T08:52:58.655Z,5.27
2019-02-10T08:55:44.252Z,5.77
2019-02-10T08:58:29.394Z,10.07
2019-02-10T09:01:14.404Z,5.77
2019-02-10T09:03:59.865Z,5.40
2019-02-10T09:06:45.275Z,5.13
2019-02-10T09:09:30.323Z,5.43
2019-02-10T09:12:15.893Z,5.80
2019-02-10T09:15:01.035Z,5.50
2019-02-10T09:17:46.252Z,5.17
2019-02-10T09:20:32.539Z,5.13
2019-02-10T09:23:17.630Z,5.70
2019-02-10T09:26:03.632Z,5.60
2019-02-10T09:28:48.598Z,5.80
2019-02-10T09:31:34.140Z,5.30
2019-02-10T09:34:19.190Z,5.40
2019-02-10T09:37:04.270Z,6.73
2019-02-10T09:39:49.615Z,10.03
2019-02-10T09:42:34.747Z,18.70
2019-02-10T09:45:20.625Z,5.47
2019-02-10T09:48:05.720Z,5.87
2019-02-10T09:50:51.337Z,5.37
2019-02-10T09:53:36.639Z,5.50
2019-02-10T09:56:21.849Z,4.70
2019-02-10T09:59:07.163Z,4.70
2019-02-10T10:01:52.755Z,5.27
2019-02-10T10:04:38.187Z,5.37
2019-02-10T10:07:23.009Z,5.53
2019-02-10T10:10:11.014Z,5.20
2019-02-10T10:12:56.668Z,5.10
2019-02-10T10:15:42.032Z,5.43
2019-02-10T10:18:27.067Z,5.50
2019-02-10T10:21:12.426Z,41.73
2019-02-10T10:23:57.816Z,6.17
2019-02-10T10:26:43.574Z,5.93
2019-02-10T10:29:28.880Z,6.30
2019-02-10T10:32:14.145Z,5.63
2019-02-10T10:34:58.937Z,5.70
2019-02-10T10:37:44.174Z,5.83
2019-02-10T10:40:28.924Z,6.70
2019-02-10T10:43:13.833Z,5.97
2019-02-10T10:46:00.720Z,5.10
2019-02-10T10:48:46.066Z,5.87
2019-02-10T10:51:31.117Z,5.37
2019-02-10T10:54:16.316Z,5.97
2019-02-10T10:57:01.629Z,5.10
2019-02-10T10:59:47.016Z,5.70
2019-02-10T11:02:32.312Z,6.40
2019-02-10T11:05:17.838Z,5.87
2019-02-10T11:08:03.018Z,6.70
2019-02-10T11:10:48.066Z,6.33
2019-02-10T11:13:33.586Z,6.23
2019-02-10T11:16:18.790Z,6.37
2019-02-10T11:19:04.222Z,6.93
2019-02-10T11:21:49.388Z,6.83
2019-02-10T11:24:34.525Z,7.10
2019-02-10T11:27:20.070Z,7.10
2019-02-10T11:30:08.850Z,8.13
2019-02-10T11:32:54.516Z,8.73
2019-02-10T11:35:39.309Z,9.83
2019-02-10T11:38:24.471Z,9.47
2019-02-10T11:41:09.913Z,9.97
2019-02-10T11:43:54.831Z,9.27
2019-02-10T11:46:40.228Z,9.87
2019-02-10T11:49:25.650Z,10.00
2019-02-10T11:52:10.921Z,9.60
2019-02-10T11:54:56.039Z,9.87
2019-02-10T11:57:41.477Z,9.87
2019-02-10T12:00:26.855Z,9.87
2019-02-10T12:03:12.131Z,9.70
2019-02-10T12:05:57.466Z,10.30
2019-02-10T12:08:42.801Z,10.37
2019-02-10T12:11:28.381Z,10.10
2019-02-10T12:14:14.096Z,10.93
2019-02-10T12:17:00.578Z,11.43
2019-02-10T12:19:45.606Z,11.13
2019-02-10T12:22:30.806Z,11.17
2019-02-10T12:25:16.580Z,11.93
2019-02-10T12:28:02.348Z,12.67
2019-02-10T12:30:47.930Z,11.23
2019-02-10T12:33:33.486Z,11.13
2019-02-10T12:36:18.602Z,12.03
2019-02-10T12:39:04.706Z,11.47
2019-02-10T12:41:49.921Z,11.63
2019-02-10T12:44:35.082Z,11.50
2019-02-10T12:47:22.237Z,11.50
2019-02-10T12:50:13.347Z,12.63
2019-02-10T12:52:58.363Z,12.60
2019-02-10T12:55:43.946Z,13.37
2019-02-10T12:58:29.247Z,12.77
2019-02-10T13:01:14.220Z,13.43
2019-02-10T13:03:59.427Z,13.17
2019-02-10T13:06:44.897Z,12.93
2019-02-10T13:09:30.162Z,13.33
2019-02-10T13:12:35.346Z,13.33
2019-02-10T13:15:20.877Z,13.87
2019-02-10T13:18:06.288Z,13.80
2019-02-10T13:20:51.564Z,12.97
2019-02-10T13:23:36.716Z,13.47
2019-02-10T13:26:22.050Z,14.33
2019-02-10T13:29:07.086Z,15.63
2019-02-10T13:31:54.620Z,14.63
2019-02-10T13:34:39.432Z,15.80
2019-02-10T13:37:24.617Z,15.27
2019-02-10T13:40:16.730Z,14.40
2019-02-10T13:43:00.018Z,15.77
2019-02-10T13:45:46.109Z,15.33
2019-02-10T13:48:31.286Z,15.40
2019-02-10T13:51:16.353Z,15.90
2019-02-10T13:54:01.843Z,15.40
2019-02-10T13:56:47.382Z,15.43
2019-02-10T13:59:33.315Z,14.63
2019-02-10T14:02:18.812Z,15.60
2019-02-10T14:05:05.252Z,15.33
2019-02-10T14:07:51.042Z,15.77
2019-02-10T14:10:36.207Z,16.07
2019-02-10T14:13:21.176Z,14.17
2019-02-10T14:16:06.578Z,14.63
2019-02-10T14:18:51.751Z,15.20
2019-02-10T14:21:37.120Z,14.77
2019-02-10T14:24:22.102Z,14.23
2019-02-10T14:27:07.632Z,15.07
2019-02-10T14:29:52.674Z,15.43
2019-02-10T14:32:37.867Z,14.80
2019-02-10T14:35:22.898Z,14.67
2019-02-10T14:38:08.164Z,14.80
2019-02-10T14:40:53.423Z,14.10
2019-02-10T14:43:39.059Z,16.23
2019-02-10T14:46:24.156Z,14.77
2019-02-10T14:49:10.635Z,14.40
2019-02-10T14:51:56.660Z,14.53
2019-02-10T14:54:42.223Z,14.90
2019-02-10T14:57:27.916Z,15.07
2019-02-10T15:00:15.604Z,16.80
2019-02-10T15:03:00.217Z,15.97
2019-02-10T15:05:45.452Z,15.43
2019-02-10T15:08:30.808Z,15.53
2019-02-10T15:11:15.966Z,14.83
2019-02-10T15:14:01.536Z,16.97
2019-02-10T15:16:47.114Z,16.03
2019-02-10T15:19:32.325Z,16.13
2019-02-10T15:22:17.787Z,16.37
2019-02-10T15:25:05.919Z,15.43
2019-02-10T15:27:51.272Z,14.97
2019-02-10T15:30:36.152Z,15.87
2019-02-10T15:33:21.467Z,15.73
2019-02-10T15:36:07.062Z,16.00
2019-02-10T15:38:51.694Z,16.57
2019-02-10T15:41:36.951Z,15.80
2019-02-10T15:44:22.486Z,16.37
2019-02-10T15:47:07.951Z,15.73
2019-02-10T15:49:53.373Z,16.83
2019-02-10T15:52:38.550Z,18.13
2019-02-10T15:55:23.799Z,17.53
2019-02-10T15:58:09.399Z,18.77
2019-02-10T16:00:55.125Z,17.67
2019-02-10T16:03:40.403Z,17.73
2019-02-10T16:06:25.379Z,18.77
2019-02-10T16:09:10.426Z,19.53
2019-02-10T16:11:55.469Z,20.10
2019-02-10T16:14:41.542Z,21.07
2019-02-10T16:17:26.788Z,21.87
2019-02-10T16:20:13.961Z,20.63
2019-02-10T16:22:59.140Z,21.73
2019-02-10T16:25:44.067Z,22.27
2019-02-10T16:28:29.246Z,23.03
2019-02-10T16:31:14.787Z,23.23
2019-02-10T16:33:59.760Z,22.90
2019-02-10T16:36:45.395Z,24.10
2019-02-10T16:39:30.419Z,23.47
2019-02-10T16:42:17.646Z,23.33
2019-02-10T16:45:06.109Z,24.90
2019-02-10T16:47:51.060Z,22.90
2019-02-10T16:50:36.154Z,22.43
2019-02-10T16:53:21.166Z,23.50
2019-02-10T16:56:06.596Z,23.63
2019-02-10T16:58:51.673Z,22.40
2019-02-10T17:01:37.480Z,23.67
2019-02-10T17:04:22.607Z,24.30
2019-02-10T17:07:07.567Z,24.97
2019-02-10T17:09:52.959Z,24.73
2019-02-10T17:12:38.758Z,24.80
2019-02-10T17:15:24.086Z,24.80
2019-02-10T17:18:09.443Z,24.57
2019-02-10T17:20:54.501Z,25.53
2019-02-10T17:23:39.796Z,26.83
2019-02-10T17:26:25.175Z,26.37
2019-02-10T17:29:10.214Z,27.87
2019-02-10T17:31:55.472Z,26.60
2019-02-10T17:34:40.746Z,27.03
2019-02-10T17:37:26.018Z,27.80
2019-02-10T17:40:30.029Z,28.47
2019-02-10T17:43:15.238Z,30.60
2019-02-10T17:46:00.852Z,28.47
2019-02-10T17:48:45.793Z,29.17
2019-02-10T17:51:31.533Z,29.73
2019-02-10T17:54:16.686Z,29.73
2019-02-10T17:57:02.219Z,31.30
2019-02-10T17:59:48.082Z,31.23
2019-02-10T18:02:33.115Z,33.03
2019-02-10T18:05:18.328Z,30.47
2019-02-10T18:08:03.558Z,30.80
2019-02-10T18:10:48.671Z,30.33
2019-02-10T18:13:33.792Z,30.67
2019-02-10T18:16:38.021Z,29.93
2019-02-10T18:19:30.921Z,32.50
2019-02-10T18:22:18.289Z,31.97
2019-02-10T18:25:06.883Z,30.93
2019-02-10T18:28:04.272Z,32.10
2019-02-10T18:30:51.055Z,32.83
2019-02-10T18:34:03.234Z,32.53
2019-02-10T18:37:06.472Z,33.07
2019-02-10T18:40:11.744Z,30.60
2019-02-10T18:42:59.190Z,33.43
2019-02-10T18:45:46.127Z,33.70
2019-02-10T18:48:33.183Z,33.80
2019-02-10T18:51:20.156Z,31.73
2019-02-10T18:54:18.330Z,33.70
2019-02-10T18:57:15.279Z,33.80
2019-02-10T19:00:10.822Z,32.90
2019-02-10T19:03:12.791Z,33.70
2019-02-10T19:06:04.086Z,46.63
2019-02-10T19:08:53.607Z,35.53
2019-02-10T19:11:47.297Z,34.73
2019-02-10T19:14:30.150Z,35.27
2019-02-10T19:17:35.426Z,36.83
2019-02-10T19:20:25.336Z,35.17
2019-02-10T19:23:12.484Z,36.37
2019-02-10T19:26:02.258Z,37.70
2019-02-10T19:28:49.480Z,36.43
2019-02-10T19:31:39.345Z,35.93
2019-02-10T19:34:42.972Z,35.27
2019-02-10T19:37:30.920Z,36.37
2019-02-10T19:40:26.664Z,37.33
2019-02-10T19:43:16.537Z,37.03
2019-02-10T19:46:03.804Z,38.63
2019-02-10T19:49:07.288Z,37.60
2019-02-10T19:52:11.011Z,37.87
2019-02-10T19:55:00.367Z,38.07
2019-02-10T19:58:02.771Z,37.57
2019-02-10T20:00:57.946Z,37.23
2019-02-10T20:03:45.313Z,38.23
2019-02-10T20:06:34.845Z,46.07
2019-02-10T20:09:24.124Z,36.67
2019-02-10T20:12:21.877Z,36.50
2019-02-10T20:15:19.235Z,36.27
2019-02-10T20:18:09.138Z,38.93
2019-02-10T20:21:00.569Z,37.53
2019-02-10T20:23:48.247Z,37.83
2019-02-10T20:26:35.362Z,37.47
2019-02-10T20:29:22.574Z,38.47
2019-02-10T20:32:19.828Z,37.90
2019-02-10T20:35:24.456Z,38.70
2019-02-10T20:38:28.040Z,39.97
2019-02-10T20:41:31.663Z,38.30
2019-02-10T20:44:35.807Z,38.00
2019-02-10T20:47:24.458Z,39.13
2019-02-10T20:50:27.767Z,40.17
2019-02-10T20:53:17.643Z,38.13
2019-02-10T20:56:13.369Z,39.67
2019-02-10T20:59:07.057Z,36.77
2019-02-10T21:02:03.379Z,37.87
2019-02-10T21:04:50.665Z,37.97
2019-02-10T21:07:37.519Z,37.67
2019-02-10T21:10:33.154Z,36.67
2019-02-10T21:13:32.433Z,36.17
2019-02-10T21:16:34.515Z,37.63
2019-02-10T21:19:22.732Z,38.60
2019-02-10T21:22:27.955Z,37.33
2019-02-10T21:25:32.500Z,36.80
2019-02-10T21:28:37.656Z,35.90
2019-02-10T21:31:28.123Z,35.63
2019-02-10T21:34:15.282Z,35.90
2019-02-10T21:37:07.782Z,35.20
2019-02-10T21:39:55.838Z,36.93
2019-02-10T21:42:43.171Z,39.27
2019-02-10T21:45:36.570Z,38.53
2019-02-10T21:48:24.117Z,35.50
2019-02-10T21:51:09.357Z,35.93
2019-02-10T21:53:55.300Z,36.67
2019-02-10T21:56:40.365Z,36.77
2019-02-10T21:59:25.843Z,35.97
2019-02-10T22:02:10.869Z,34.27
2019-02-10T22:04:56.190Z,35.33
2019-02-10T22:07:41.574Z,34.67
2019-02-10T22:10:26.614Z,34.10
2019-02-10T22:13:12.022Z,35.27
2019-02-10T22:15:57.141Z,34.10
2019-02-10T22:18:42.452Z,35.77
2019-02-10T22:21:28.140Z,34.20
2019-02-10T22:24:14.228Z,34.30
2019-02-10T22:26:59.694Z,41.90
2019-02-10T22:29:45.017Z,34.67
2019-02-10T22:32:30.161Z,33.53
2019-02-10T22:35:15.557Z,34.00
2019-02-10T22:38:00.817Z,32.27
2019-02-10T22:40:46.004Z,33.93
2019-02-10T22:43:31.900Z,32.57
2019-02-10T22:46:17.217Z,32.37
2019-02-10T22:49:02.309Z,33.07
2019-02-10T22:51:47.607Z,31.80
2019-02-10T22:54:34.065Z,30.67
2019-02-10T22:57:18.927Z,32.13
2019-02-10T23:00:07.947Z,31.60
2019-02-10T23:02:52.913Z,30.57
2019-02-10T23:05:37.849Z,30.53
2019-02-10T23:08:23.388Z,30.93
2019-02-10T23:11:08.357Z,30.63
2019-02-10T23:13:53.547Z,30.00
2019-02-10T23:16:38.309Z,29.77
2019-02-10T23:19:23.715Z,31.07
2019-02-10T23:22:09.069Z,30.67
2019-02-10T23:24:54.043Z,30.37
2019-02-10T23:27:39.062Z,38.30
2019-02-10T23:30:24.215Z,30.07
2019-02-10T23:33:08.995Z,29.27
2019-02-10T23:35:54.090Z,29.10
2019-02-10T23:38:39.385Z,29.97
2019-02-10T23:41:24.675Z,30.20
2019-02-10T23:44:10.032Z,29.50
2019-02-10T23:46:55.363Z,28.63
2019-02-10T23:49:40.425Z,27.93
2019-02-10T23:52:25.987Z,28.40
2019-02-10T23:55:11.051Z,29.00
2019-02-10T23:57:56.329Z,28.80
